Amonate, Virginia
Current Conditions -  °F | °C
As of 10:35 AM on Friday 28 Nov 2014 (Local Time) from KJFZ Reporting Station
Overcast Overcast  
Wind Chill: 21°   Ceiling: 2000
Heat Index: 27°   Visibility: 10mi
Dew Point: 18°   Wind: 5mph
Humidity: 69%   Direction: 270°W
Pressure: 30.31"   Gusts: NA
Location:  37.19°N, 81.64°W
Report Text: KJFZ 281535Z AUTO 27004KT 10SM OVC020 M03/M08 A3031 RMK AO2 T10301079
Loading
Personal Weather Stations






























Interactive Weather Map New forecast layout! Learn more

10-Day Weather Forecast

Advertisements
Track Severe Weather on mobile